createdAt,value
2019-06-07T00:02:19.007Z,4.10
2019-06-07T00:04:48.562Z,3.63
2019-06-07T00:07:21.812Z,3.63
2019-06-07T00:09:49.926Z,4.30
2019-06-07T00:12:21.522Z,4.00
2019-06-07T00:14:51.332Z,4.17
2019-06-07T00:17:20.953Z,3.87
2019-06-07T00:19:50.947Z,3.80
2019-06-07T00:22:32.113Z,4.20
2019-06-07T00:24:52.681Z,3.80
2019-06-07T00:27:22.780Z,3.40
2019-06-07T00:29:52.791Z,3.60
2019-06-07T00:32:22.502Z,3.40
2019-06-07T00:34:52.077Z,3.57
2019-06-07T00:37:25.210Z,3.20
2019-06-07T00:40:12.859Z,3.17
2019-06-07T00:42:24.825Z,3.40
2019-06-07T00:44:54.361Z,3.30
2019-06-07T00:47:25.723Z,3.43
2019-06-07T00:49:55.371Z,3.40
2019-06-07T00:53:11.075Z,3.10
2019-06-07T00:54:56.297Z,3.47
2019-06-07T00:57:25.973Z,3.70
2019-06-07T00:59:55.825Z,3.80
2019-06-07T01:02:29.016Z,3.43
2019-06-07T01:04:56.712Z,3.97
2019-06-07T01:07:26.393Z,3.33
2019-06-07T01:09:56.513Z,3.53
2019-06-07T01:12:27.198Z,3.33
2019-06-07T01:14:56.778Z,3.67
2019-06-07T01:17:43.708Z,3.10
2019-06-07T01:20:02.300Z,3.23
2019-06-07T01:22:32.427Z,3.47
2019-06-07T01:25:02.501Z,2.97
2019-06-07T01:27:32.153Z,3.50
2019-06-07T01:30:01.840Z,3.73
2019-06-07T01:32:31.921Z,3.70
2019-06-07T01:35:01.999Z,4.10
2019-06-07T01:37:31.708Z,4.40
2019-06-07T01:40:01.416Z,4.43
2019-06-07T01:42:31.261Z,4.70
2019-06-07T01:45:00.868Z,4.20
2019-06-07T01:47:32.027Z,4.90
2019-06-07T01:50:02.069Z,5.17
2019-06-07T01:52:31.605Z,4.93
2019-06-07T01:55:01.292Z,4.83
2019-06-07T01:57:45.458Z,4.93
2019-06-07T02:00:02.352Z,4.40
2019-06-07T02:02:32.087Z,4.70
2019-06-07T02:05:02.043Z,4.57
2019-06-07T02:07:32.967Z,4.97
2019-06-07T02:10:04.070Z,4.87
2019-06-07T02:12:42.393Z,4.43
2019-06-07T02:15:08.381Z,4.30
2019-06-07T02:17:38.555Z,4.47
2019-06-07T02:20:09.224Z,4.63
2019-06-07T02:22:38.945Z,4.10
2019-06-07T02:27:41.064Z,4.23
2019-06-07T02:32:43.114Z,3.97
2019-06-07T02:35:13.590Z,4.07
2019-06-07T02:37:43.327Z,4.07
2019-06-07T02:40:15.312Z,4.27
2019-06-07T02:42:45.037Z,4.40
2019-06-07T02:45:15.093Z,4.23
2019-06-07T02:47:46.345Z,4.37
2019-06-07T02:50:17.159Z,4.83
2019-06-07T02:52:46.922Z,5.30
2019-06-07T02:55:16.644Z,5.43
2019-06-07T02:57:46.348Z,5.20
2019-06-07T03:01:00.380Z,5.00
2019-06-07T03:03:10.815Z,5.07
2019-06-07T03:05:45.484Z,5.13
2019-06-07T03:08:17.942Z,4.83
2019-06-07T03:10:50.928Z,5.23
2019-06-07T03:13:22.485Z,4.57
2019-06-07T03:15:54.208Z,4.80
2019-06-07T03:18:41.928Z,5.07
2019-06-07T03:21:16.181Z,4.93
2019-06-07T03:23:48.081Z,4.83
2019-06-07T03:26:20.681Z,4.93
2019-06-07T03:28:50.655Z,4.77
2019-06-07T03:31:20.747Z,4.63
2019-06-07T03:33:50.300Z,4.37
2019-06-07T03:36:25.579Z,4.70
2019-06-07T03:38:51.709Z,4.20
2019-06-07T03:41:21.404Z,4.23
2019-06-07T03:43:51.593Z,4.40
2019-06-07T03:46:21.108Z,5.00
2019-06-07T03:48:50.747Z,4.70
2019-06-07T03:51:25.157Z,5.23
2019-06-07T03:53:51.804Z,4.57
2019-06-07T03:56:21.356Z,4.87
2019-06-07T03:58:50.924Z,4.43
2019-06-07T04:01:20.933Z,4.20
2019-06-07T04:03:51.975Z,5.20
2019-06-07T04:06:23.126Z,4.53
2019-06-07T04:08:52.681Z,4.80
2019-06-07T04:11:22.428Z,4.63
2019-06-07T04:13:52.130Z,4.80
2019-06-07T04:16:21.682Z,4.80
2019-06-07T04:18:51.565Z,5.27
2019-06-07T04:21:21.101Z,4.53
2019-06-07T04:23:50.714Z,4.47
2019-06-07T04:26:20.456Z,4.73
2019-06-07T04:31:22.254Z,4.57
2019-06-07T04:33:52.270Z,4.40
2019-06-07T04:36:39.393Z,4.60
2019-06-07T04:38:56.379Z,3.90
2019-06-07T04:41:31.024Z,3.80
2019-06-07T04:44:02.639Z,3.67
2019-06-07T04:46:35.286Z,4.37
2019-06-07T04:49:05.570Z,4.50
2019-06-07T04:51:41.163Z,4.22
2019-06-07T04:54:09.058Z,4.47
2019-06-07T04:56:44.142Z,4.67
2019-06-07T04:59:10.500Z,4.07
2019-06-07T05:01:42.569Z,3.90
2019-06-07T05:04:11.476Z,4.63
2019-06-07T05:06:42.497Z,4.60
2019-06-07T05:09:12.243Z,4.27
2019-06-07T05:11:44.975Z,3.80
2019-06-07T05:14:13.723Z,3.37
2019-06-07T05:16:44.356Z,3.27
2019-06-07T05:19:14.384Z,4.00
2019-06-07T05:22:02.822Z,3.60
2019-06-07T05:24:15.492Z,3.50
2019-06-07T05:26:45.049Z,3.53
2019-06-07T05:29:14.928Z,3.57
2019-06-07T05:31:45.763Z,3.53
2019-06-07T05:34:16.826Z,4.17
2019-06-07T05:37:10.104Z,4.57
2019-06-07T05:39:17.983Z,4.60
2019-06-07T05:41:47.799Z,4.30
2019-06-07T05:44:17.462Z,4.13
2019-06-07T05:46:47.676Z,4.07
2019-06-07T05:49:17.464Z,3.90
2019-06-07T05:51:47.426Z,3.80
2019-06-07T05:54:17.049Z,3.23
2019-06-07T05:56:46.663Z,4.97
2019-06-07T05:59:16.194Z,3.20
2019-06-07T06:01:56.660Z,3.27
2019-06-07T06:04:17.359Z,3.20
2019-06-07T06:06:47.687Z,2.80
2019-06-07T06:09:17.303Z,2.70
2019-06-07T06:11:59.435Z,3.37
2019-06-07T06:14:18.129Z,2.93
2019-06-07T06:16:49.860Z,2.90
2019-06-07T06:19:19.140Z,3.00
2019-06-07T06:21:48.786Z,6.30
2019-06-07T06:24:18.556Z,3.13
2019-06-07T06:26:54.318Z,2.90
2019-06-07T06:29:20.479Z,3.20
2019-06-07T06:32:39.580Z,2.90
2019-06-07T06:34:21.622Z,2.37
2019-06-07T06:36:51.796Z,2.60
2019-06-07T06:39:21.908Z,2.47
2019-06-07T06:42:00.991Z,2.90
2019-06-07T06:44:22.732Z,2.90
2019-06-07T06:46:57.605Z,3.00
2019-06-07T06:49:23.762Z,3.10
2019-06-07T06:51:53.935Z,2.57
2019-06-07T06:54:40.125Z,2.43
2019-06-07T06:57:17.306Z,2.37
2019-06-07T06:59:38.604Z,3.03
2019-06-07T07:01:57.675Z,2.93
2019-06-07T07:04:27.747Z,2.40
2019-06-07T07:06:58.374Z,2.47
2019-06-07T07:09:29.377Z,2.30
2019-06-07T07:12:10.893Z,2.57
2019-06-07T07:14:31.515Z,2.23
2019-06-07T07:17:01.061Z,2.63
2019-06-07T07:19:31.184Z,2.57
2019-06-07T07:22:00.848Z,2.23
2019-06-07T07:24:30.446Z,2.33
2019-06-07T07:27:00.298Z,2.03
2019-06-07T07:29:30.423Z,2.50
2019-06-07T07:31:59.976Z,2.33
2019-06-07T07:34:36.010Z,2.33
2019-06-07T07:37:01.732Z,2.17
2019-06-07T07:39:31.275Z,2.40
2019-06-07T07:42:21.283Z,2.20
2019-06-07T07:44:32.290Z,2.20
2019-06-07T07:47:01.891Z,2.40
2019-06-07T07:49:31.765Z,2.67
2019-06-07T07:52:01.396Z,2.30
2019-06-07T07:54:31.394Z,2.20
2019-06-07T07:57:02.118Z,1.97
2019-06-07T07:59:41.983Z,1.93
2019-06-07T08:02:02.976Z,2.00
2019-06-07T08:05:13.038Z,2.23
2019-06-07T08:07:04.496Z,1.90
2019-06-07T08:09:34.137Z,2.17
2019-06-07T08:12:03.858Z,2.00
2019-06-07T08:14:33.404Z,2.30
2019-06-07T08:17:02.973Z,2.17
2019-06-07T08:19:32.782Z,8.20
2019-06-07T08:22:02.343Z,2.23
2019-06-07T08:24:32.205Z,2.60
2019-06-07T08:27:24.620Z,2.20
2019-06-07T08:29:45.084Z,2.23
2019-06-07T08:32:04.947Z,2.33
2019-06-07T08:34:35.125Z,2.07
2019-06-07T08:37:04.839Z,2.00
2019-06-07T08:39:34.389Z,2.47
2019-06-07T08:42:15.426Z,2.30
2019-06-07T08:44:35.951Z,2.17
2019-06-07T08:47:19.792Z,4.67
2019-06-07T08:49:37.174Z,2.20
2019-06-07T08:52:11.863Z,2.10
2019-06-07T08:54:38.091Z,2.10
2019-06-07T08:57:20.747Z,2.40
2019-06-07T08:59:39.299Z,2.10
2019-06-07T09:02:22.850Z,2.10
2019-06-07T09:04:40.289Z,2.50
2019-06-07T09:07:19.263Z,2.07
2019-06-07T09:09:41.413Z,1.97
2019-06-07T09:12:11.747Z,2.03
2019-06-07T09:14:58.694Z,2.00
2019-06-07T09:17:13.099Z,1.60
2019-06-07T09:19:42.779Z,2.40
2019-06-07T09:22:12.338Z,2.50
2019-06-07T09:24:42.513Z,2.00
2019-06-07T09:27:12.863Z,2.13
2019-06-07T09:29:43.825Z,2.20
2019-06-07T09:32:18.203Z,2.33
2019-06-07T09:34:44.673Z,1.97
2019-06-07T09:38:02.726Z,1.90
2019-06-07T09:39:48.031Z,2.07
2019-06-07T09:42:17.569Z,2.00
2019-06-07T09:44:47.118Z,2.47
2019-06-07T09:47:31.025Z,2.20
2019-06-07T09:49:48.625Z,2.27
2019-06-07T09:52:18.263Z,2.10
2019-06-07T09:55:13.877Z,2.23
2019-06-07T09:57:19.081Z,2.10
2019-06-07T09:59:48.782Z,2.00
2019-06-07T10:02:18.444Z,2.00
2019-06-07T10:04:47.977Z,1.80
2019-06-07T10:07:31.113Z,2.27
2019-06-07T10:12:20.342Z,1.70
2019-06-07T10:14:49.972Z,2.25
2019-06-07T10:17:19.519Z,1.60
2019-06-07T10:19:49.194Z,1.80
2019-06-07T10:22:18.745Z,1.70
2019-06-07T10:24:48.296Z,1.60
2019-06-07T10:27:17.916Z,1.90
2019-06-07T10:29:47.608Z,1.40
2019-06-07T10:32:17.156Z,1.53
2019-06-07T10:34:46.791Z,1.90
2019-06-07T10:37:16.340Z,1.90
2019-06-07T10:39:48.983Z,1.60
2019-06-07T10:42:17.331Z,1.70
2019-06-07T10:44:46.883Z,1.42
2019-06-07T10:47:16.443Z,1.40
2019-06-07T10:49:46.641Z,1.92
2019-06-07T10:52:16.521Z,1.40
2019-06-07T10:54:46.273Z,1.42
2019-06-07T10:57:16.331Z,1.40
2019-06-07T10:59:46.513Z,1.30
2019-06-07T11:02:16.162Z,1.35
2019-06-07T11:04:45.781Z,1.50
2019-06-07T11:07:15.608Z,1.85
2019-06-07T11:09:45.309Z,1.37
2019-06-07T11:12:15.281Z,1.40
2019-06-07T11:14:45.451Z,1.40
2019-06-07T11:17:15.724Z,1.40
2019-06-07T11:19:45.986Z,1.42
2019-06-07T11:22:15.546Z,1.12
2019-06-07T11:24:45.175Z,1.40
2019-06-07T11:27:16.392Z,1.45
2019-06-07T11:29:46.969Z,1.57
2019-06-07T11:32:18.734Z,1.40
2019-06-07T11:34:48.570Z,1.40
2019-06-07T11:37:19.159Z,1.52
2019-06-07T11:39:48.967Z,1.35
2019-06-07T11:42:20.082Z,1.50
2019-06-07T11:44:56.645Z,1.47
2019-06-07T11:47:21.633Z,1.77
2019-06-07T11:49:51.289Z,1.30
2019-06-07T11:52:20.843Z,1.30
2019-06-07T11:54:50.392Z,1.20
2019-06-07T11:57:20.176Z,1.30
2019-06-07T11:59:49.726Z,1.30
2019-06-07T12:02:19.281Z,1.40
2019-06-07T12:04:50.055Z,1.65
2019-06-07T12:07:20.475Z,1.47
2019-06-07T12:09:56.518Z,1.40
2019-06-07T12:12:21.734Z,1.30
2019-06-07T12:14:51.279Z,1.30
2019-06-07T12:17:20.951Z,1.10
2019-06-07T12:19:50.498Z,1.40
2019-06-07T12:22:20.706Z,1.35
2019-06-07T12:24:50.482Z,1.30
2019-06-07T12:27:20.826Z,1.22
2019-06-07T12:29:50.550Z,1.00
2019-06-07T12:32:21.522Z,1.37
2019-06-07T12:34:51.248Z,2.05
2019-06-07T12:37:25.304Z,1.15
2019-06-07T12:39:52.322Z,1.20
2019-06-07T12:42:22.673Z,0.82
2019-06-07T12:44:52.328Z,1.82
2019-06-07T12:47:23.243Z,1.10
2019-06-07T12:49:53.002Z,1.30
2019-06-07T12:52:24.587Z,1.02
2019-06-07T12:54:54.271Z,1.20
2019-06-07T12:57:24.372Z,1.10
2019-06-07T12:59:53.913Z,1.10
2019-06-07T13:02:25.075Z,0.90
2019-06-07T13:04:55.039Z,1.30
2019-06-07T13:07:24.764Z,1.10
2019-06-07T13:09:54.308Z,1.10
2019-06-07T13:12:24.772Z,0.90
2019-06-07T13:14:54.319Z,1.00
2019-06-07T13:17:24.174Z,0.85
2019-06-07T13:19:53.985Z,0.98
2019-06-07T13:22:24.407Z,1.10
2019-06-07T13:24:54.164Z,1.10
2019-06-07T13:27:24.547Z,0.85
2019-06-07T13:29:54.776Z,1.00
2019-06-07T13:32:24.354Z,0.93
2019-06-07T13:34:53.941Z,0.75
2019-06-07T13:37:23.896Z,1.10
2019-06-07T13:39:53.465Z,1.10
2019-06-07T13:42:23.023Z,1.05
2019-06-07T13:44:53.022Z,1.15
2019-06-07T13:47:23.148Z,0.80
2019-06-07T13:49:55.277Z,0.95
2019-06-07T13:52:24.424Z,0.90
2019-06-07T13:54:53.980Z,1.10
2019-06-07T13:57:24.409Z,0.80
2019-06-07T13:59:54.239Z,1.15
2019-06-07T14:02:25.706Z,1.07
2019-06-07T14:04:55.168Z,1.30
2019-06-07T14:07:26.968Z,0.90
2019-06-07T14:09:56.510Z,1.07
2019-06-07T14:12:26.258Z,1.02
2019-06-07T14:14:56.197Z,1.12
2019-06-07T14:17:28.113Z,1.00
2019-06-07T14:19:57.319Z,1.15
2019-06-07T14:22:27.032Z,0.90
2019-06-07T14:24:57.500Z,0.80
2019-06-07T14:27:27.605Z,1.12
2019-06-07T14:29:57.607Z,1.02
2019-06-07T14:32:28.691Z,0.82
2019-06-07T14:34:58.296Z,1.00
2019-06-07T14:37:29.025Z,1.10
2019-06-07T14:39:59.730Z,1.12
2019-06-07T14:42:29.286Z,1.10
2019-06-07T14:44:58.918Z,0.95
2019-06-07T14:47:29.886Z,1.07
2019-06-07T14:49:59.770Z,1.05
2019-06-07T14:52:30.767Z,1.02
2019-06-07T14:55:00.521Z,0.88
2019-06-07T14:57:31.119Z,0.88
2019-06-07T15:00:10.378Z,0.98
2019-06-07T15:02:36.092Z,0.88
2019-06-07T15:05:05.237Z,0.93
2019-06-07T15:07:34.911Z,0.70
2019-06-07T15:10:06.688Z,0.80
2019-06-07T15:12:36.254Z,1.15
2019-06-07T15:15:07.764Z,1.20
2019-06-07T15:17:37.327Z,1.02
2019-06-07T15:20:08.884Z,1.30
2019-06-07T15:22:39.211Z,1.07
2019-06-07T15:25:09.876Z,1.00
2019-06-07T15:27:39.668Z,0.90
2019-06-07T15:30:11.482Z,1.10
2019-06-07T15:32:41.457Z,1.10
2019-06-07T15:35:11.789Z,1.12
2019-06-07T15:37:41.337Z,1.12
2019-06-07T15:40:12.379Z,1.00
2019-06-07T15:42:52.115Z,1.12
2019-06-07T15:45:13.774Z,1.20
2019-06-07T15:47:43.329Z,0.90
2019-06-07T15:50:13.763Z,1.15
2019-06-07T15:52:43.594Z,2.40
2019-06-07T15:55:15.539Z,1.07
2019-06-07T15:57:45.078Z,1.40
2019-06-07T16:00:18.939Z,1.10
2019-06-07T16:02:48.484Z,1.30
2019-06-07T16:05:18.447Z,1.30
2019-06-07T16:07:48.155Z,1.10
2019-06-07T16:10:18.243Z,1.20
2019-06-07T16:12:59.527Z,1.10
2019-06-07T16:15:21.700Z,1.30
2019-06-07T16:17:51.268Z,1.40
2019-06-07T16:20:20.943Z,1.40
2019-06-07T16:22:50.758Z,1.70
2019-06-07T16:25:21.111Z,2.00
2019-06-07T16:27:50.986Z,2.20
2019-06-07T16:30:21.407Z,2.30
2019-06-07T16:32:51.053Z,2.30
2019-06-07T16:35:20.595Z,2.20
2019-06-07T16:37:52.213Z,2.50
2019-06-07T16:40:21.857Z,2.37
2019-06-07T16:42:51.701Z,2.00
2019-06-07T16:45:22.448Z,2.20
2019-06-07T16:47:52.137Z,2.13
2019-06-07T16:50:21.950Z,2.33
2019-06-07T16:52:51.777Z,2.63
2019-06-07T16:55:21.781Z,2.20
2019-06-07T16:57:51.974Z,2.23
2019-06-07T17:00:22.826Z,1.83
2019-06-07T17:02:52.632Z,1.37
2019-06-07T17:05:22.251Z,1.30
2019-06-07T17:07:52.123Z,1.30
2019-06-07T17:10:22.143Z,0.87
2019-06-07T17:12:51.883Z,0.93
2019-06-07T17:15:21.979Z,0.90
2019-06-07T17:17:51.531Z,1.00
2019-06-07T17:20:22.867Z,0.80
2019-06-07T17:22:52.748Z,0.80
2019-06-07T17:25:22.444Z,0.90
2019-06-07T17:27:52.157Z,0.90
2019-06-07T17:30:22.517Z,1.00
2019-06-07T17:32:59.029Z,0.83
2019-06-07T17:35:23.534Z,0.70
2019-06-07T17:37:53.082Z,0.80
2019-06-07T17:40:23.259Z,0.70
2019-06-07T17:42:53.071Z,0.70
2019-06-07T17:45:23.360Z,0.50
2019-06-07T17:47:52.921Z,0.40
2019-06-07T17:50:23.611Z,0.80
2019-06-07T17:52:53.177Z,0.30
2019-06-07T17:55:22.852Z,0.60
2019-06-07T17:57:52.704Z,0.60
2019-06-07T18:00:28.572Z,0.37
2019-06-07T18:02:55.690Z,0.50
2019-06-07T18:05:25.329Z,0.87
2019-06-07T18:07:57.529Z,2.63
2019-06-07T18:10:39.259Z,2.23
2019-06-07T18:13:09.234Z,0.40
2019-06-07T18:15:44.372Z,0.50
2019-06-07T18:18:15.612Z,0.30
2019-06-07T18:20:45.324Z,1.23
2019-06-07T18:23:14.959Z,0.50
2019-06-07T18:25:44.737Z,0.30
2019-06-07T18:28:14.449Z,0.40
2019-06-07T18:30:43.998Z,0.43
2019-06-07T18:33:13.651Z,0.63
2019-06-07T18:35:43.359Z,0.53
2019-06-07T18:38:12.910Z,0.73
2019-06-07T18:40:43.396Z,0.60
2019-06-07T18:43:13.925Z,0.60
2019-06-07T18:45:43.472Z,0.43
2019-06-07T18:48:13.573Z,0.20
2019-06-07T18:50:43.461Z,0.30
2019-06-07T18:53:13.387Z,0.30
2019-06-07T18:55:43.500Z,0.43
2019-06-07T18:58:13.103Z,0.40
2019-06-07T19:00:42.792Z,0.30
2019-06-07T19:03:12.340Z,0.20
2019-06-07T19:05:42.130Z,0.30
2019-06-07T19:08:11.675Z,0.23
2019-06-07T19:10:42.178Z,0.30
2019-06-07T19:13:11.795Z,0.40
2019-06-07T19:15:43.461Z,0.20
2019-06-07T19:18:12.831Z,0.33
2019-06-07T19:20:42.379Z,0.40
2019-06-07T19:23:12.353Z,0.40
2019-06-07T19:25:41.976Z,0.20
2019-06-07T19:28:11.526Z,0.40
2019-06-07T19:30:41.661Z,0.30
2019-06-07T19:33:11.989Z,0.40
2019-06-07T19:35:41.716Z,0.43
2019-06-07T19:38:11.255Z,0.40
2019-06-07T19:40:41.111Z,0.40
2019-06-07T19:43:10.813Z,0.40
2019-06-07T19:45:41.752Z,0.30
2019-06-07T19:48:11.351Z,0.30
2019-06-07T19:50:40.916Z,12.77
2019-06-07T19:53:10.554Z,1.83
2019-06-07T19:55:40.099Z,2.03
2019-06-07T19:58:09.723Z,1.23
2019-06-07T20:00:39.409Z,0.70
2019-06-07T20:03:09.108Z,0.40
2019-06-07T20:05:38.673Z,0.40
2019-06-07T20:08:08.223Z,0.40
2019-06-07T20:10:37.859Z,0.20
2019-06-07T20:13:07.541Z,0.30
2019-06-07T20:15:37.115Z,0.57
2019-06-07T20:18:07.704Z,0.40
2019-06-07T20:20:37.490Z,0.30
2019-06-07T20:23:07.248Z,0.30
2019-06-07T20:25:37.308Z,0.33
2019-06-07T20:28:06.887Z,0.50
2019-06-07T20:30:36.623Z,0.40
2019-06-07T20:33:06.335Z,0.40
2019-06-07T20:35:36.081Z,0.40
2019-06-07T20:38:05.869Z,0.33
2019-06-07T20:40:35.662Z,0.40
2019-06-07T20:43:05.846Z,0.40
2019-06-07T20:45:35.723Z,0.40
2019-06-07T20:48:06.361Z,0.23
2019-06-07T20:50:36.048Z,0.40
2019-06-07T20:53:07.229Z,0.30
2019-06-07T20:55:36.962Z,0.40
2019-06-07T20:58:07.240Z,0.30
2019-06-07T21:00:36.961Z,0.93
2019-06-07T21:03:07.417Z,0.70
2019-06-07T21:05:37.140Z,0.33
2019-06-07T21:08:09.810Z,0.50
2019-06-07T21:10:38.622Z,0.50
2019-06-07T21:13:08.317Z,0.37
2019-06-07T21:15:48.342Z,0.40
2019-06-07T21:18:18.722Z,0.60
2019-06-07T21:20:41.877Z,0.50
2019-06-07T21:23:12.112Z,0.33
2019-06-07T21:25:41.661Z,0.63
2019-06-07T21:28:11.499Z,0.50
2019-06-07T21:30:41.209Z,0.50
2019-06-07T21:33:11.910Z,0.40
2019-06-07T21:35:43.229Z,0.30
2019-06-07T21:38:12.951Z,0.40
2019-06-07T21:40:42.496Z,0.50
2019-06-07T21:43:12.764Z,0.50
2019-06-07T21:45:43.154Z,0.30
2019-06-07T21:48:14.378Z,0.70
2019-06-07T21:50:44.559Z,0.50
2019-06-07T21:53:14.270Z,0.60
2019-06-07T21:55:43.821Z,0.40
2019-06-07T21:58:13.610Z,0.40
2019-06-07T22:01:04.264Z,0.70
2019-06-07T22:03:34.212Z,0.47
2019-06-07T22:06:05.539Z,0.50
2019-06-07T22:08:35.177Z,0.50
2019-06-07T22:11:06.063Z,0.60
2019-06-07T22:13:35.897Z,0.50
2019-06-07T22:16:19.895Z,0.67
2019-06-07T22:18:36.987Z,0.60
2019-06-07T22:21:06.536Z,0.60
2019-06-07T22:23:37.217Z,0.50
2019-06-07T22:26:07.180Z,0.50
2019-06-07T22:28:36.828Z,1.97
2019-06-07T22:31:06.537Z,1.60
2019-06-07T22:33:36.094Z,0.53
2019-06-07T22:36:06.871Z,0.70
2019-06-07T22:38:37.298Z,0.50
2019-06-07T22:41:07.293Z,0.80
2019-06-07T22:43:37.129Z,0.73
2019-06-07T22:46:06.827Z,0.47
2019-06-07T22:48:36.451Z,0.40
2019-06-07T22:51:10.537Z,0.50
2019-06-07T22:53:42.716Z,0.40
2019-06-07T22:56:13.995Z,0.60
2019-06-07T22:58:43.616Z,0.33
2019-06-07T23:01:14.537Z,0.47
2019-06-07T23:03:44.403Z,0.43
2019-06-07T23:06:14.719Z,0.40
2019-06-07T23:08:44.459Z,0.50
2019-06-07T23:11:15.103Z,0.30
2019-06-07T23:13:45.291Z,0.40
2019-06-07T23:16:15.788Z,0.30
2019-06-07T23:18:45.757Z,0.40
2019-06-07T23:21:15.900Z,0.40
2019-06-07T23:23:45.573Z,0.70
2019-06-07T23:26:16.241Z,0.70
2019-06-07T23:28:45.856Z,0.50
2019-06-07T23:31:16.591Z,0.40
2019-06-07T23:33:46.568Z,0.30
2019-06-07T23:36:17.233Z,0.40
2019-06-07T23:38:46.941Z,0.33
2019-06-07T23:41:17.656Z,0.30
2019-06-07T23:43:47.405Z,0.30
2019-06-07T23:46:17.489Z,0.50
2019-06-07T23:48:47.265Z,0.40
2019-06-07T23:51:17.690Z,0.40
2019-06-07T23:53:47.413Z,0.30
2019-06-07T23:56:18.622Z,0.40
2019-06-07T23:58:48.316Z,0.50
